Time;durP1;ratioP1;P1;durP2;ratioP2;P2;SDS_P1;SDS_P2;PMS_P1;PMS_P2;Temp;Humidity;BMP_temperature;BMP_pressure;BME280_temperature;BME280_humidity;BME280_pressure;Samples;Min_cycle;Max_cycle;Signal;HPM_P1;HPM_P2
2024/02/12 00:00:23;;;;;;;11.77;5.63;;;7.30;99.90;;;;;;5074032;28;20044;-69
2024/02/12 00:02:49;;;;;;;8.48;5.53;;;7.30;99.90;;;;;;5075330;28;20033;-68
2024/02/12 00:05:15;;;;;;;8.95;5.68;;;7.30;99.90;;;;;;5075339;28;20028;-68
2024/02/12 00:07:42;;;;;;;11.00;5.95;;;7.40;99.90;;;;;;5075556;28;20074;-69
2024/02/12 00:10:11;;;;;;;9.45;5.25;;;7.40;99.90;;;;;;5075030;28;20031;-69
2024/02/12 00:12:39;;;;;;;9.85;5.55;;;7.40;99.90;;;;;;5074918;28;20120;-69
2024/02/12 00:15:07;;;;;;;9.65;5.82;;;7.30;99.90;;;;;;5075322;28;20032;-69
2024/02/12 00:17:35;;;;;;;9.00;5.07;;;7.40;99.90;;;;;;5074866;28;20028;-69
2024/02/12 00:20:06;;;;;;;9.80;5.80;;;7.40;99.90;;;;;;5075177;28;20398;-69
2024/02/12 00:22:32;;;;;;;12.60;6.30;;;7.30;99.90;;;;;;5074795;28;20024;-69
2024/02/12 00:24:57;;;;;;;9.48;5.32;;;7.30;99.90;;;;;;5074881;28;20029;-69
2024/02/12 00:27:23;;;;;;;9.75;5.72;;;7.30;99.90;;;;;;5075056;28;20029;-69
2024/02/12 00:29:51;;;;;;;9.48;5.68;;;7.30;99.90;;;;;;5074907;28;20025;-69
2024/02/12 00:32:17;;;;;;;11.38;6.30;;;7.40;99.90;;;;;;5074975;28;20063;-68
2024/02/12 00:34:43;;;;;;;11.90;6.43;;;7.30;99.90;;;;;;5074811;28;20032;-69
2024/02/12 00:37:08;;;;;;;10.80;6.30;;;7.30;99.90;;;;;;5074891;28;20537;-69
2024/02/12 00:39:34;;;;;;;10.30;6.35;;;7.40;99.90;;;;;;5074586;28;20056;-69
2024/02/12 00:42:00;;;;;;;12.98;7.15;;;7.50;99.90;;;;;;5074569;28;20458;-69
2024/02/12 00:44:25;;;;;;;10.73;6.63;;;7.50;99.90;;;;;;5074658;28;20364;-69
2024/02/12 00:46:54;;;;;;;12.18;6.78;;;7.50;99.90;;;;;;5074513;28;20087;-69
2024/02/12 00:49:20;;;;;;;9.75;6.47;;;7.50;99.90;;;;;;5074635;28;20086;-68
2024/02/12 00:51:46;;;;;;;13.85;6.40;;;7.50;99.90;;;;;;5074499;28;20474;-68
2024/02/12 00:54:14;;;;;;;9.88;6.03;;;7.50;99.90;;;;;;5074223;28;20521;-69
2024/02/12 00:56:43;;;;;;;11.15;6.35;;;7.50;99.90;;;;;;5074297;28;20107;-69
2024/02/12 00:59:11;;;;;;;10.90;6.30;;;7.50;99.90;;;;;;5074401;28;20494;-69
2024/02/12 01:01:37;;;;;;;14.93;7.53;;;7.50;99.90;;;;;;5074000;28;20080;-69
2024/02/12 01:04:05;;;;;;;14.60;7.22;;;7.50;99.90;;;;;;5073965;28;20024;-69
2024/02/12 01:06:30;;;;;;;10.05;6.90;;;7.40;99.90;;;;;;5074265;28;20390;-68
2024/02/12 01:08:56;;;;;;;12.07;7.07;;;7.40;99.90;;;;;;5074041;28;20031;-68
2024/02/12 01:11:22;;;;;;;15.98;7.50;;;7.40;99.90;;;;;;5073802;28;20482;-68
2024/02/12 01:13:48;;;;;;;14.38;7.35;;;7.50;99.90;;;;;;5073725;28;20028;-69
2024/02/12 01:16:13;;;;;;;16.80;6.75;;;7.50;99.90;;;;;;5074035;28;20090;-68
2024/02/12 01:18:40;;;;;;;14.23;6.72;;;7.50;99.90;;;;;;5074156;28;20054;-69
2024/02/12 01:21:06;;;;;;;14.57;6.35;;;7.40;99.90;;;;;;5073705;28;20418;-69
2024/02/12 01:23:32;;;;;;;12.27;7.10;;;7.50;99.90;;;;;;5073981;28;20032;-69
2024/02/12 01:25:59;;;;;;;11.55;6.93;;;7.50;99.90;;;;;;5073917;28;20018;-69
2024/02/12 01:28:25;;;;;;;10.82;6.55;;;7.50;99.90;;;;;;5073752;28;20103;-68
2024/02/12 01:30:51;;;;;;;13.52;6.75;;;7.50;99.90;;;;;;5073831;28;20070;-68
2024/02/12 01:33:20;;;;;;;13.25;7.00;;;7.50;99.90;;;;;;5073644;28;20024;-69
2024/02/12 01:35:48;;;;;;;13.43;7.03;;;7.50;99.90;;;;;;5073822;28;20074;-68
2024/02/12 01:38:16;;;;;;;12.15;6.47;;;7.50;99.90;;;;;;5073614;28;20470;-68
2024/02/12 01:40:41;;;;;;;15.10;7.47;;;7.60;99.90;;;;;;5073699;28;20449;-69
2024/02/12 01:43:26;;;;;;;12.77;7.20;;;7.60;99.90;;;;;;5073278;28;20059;-68
2024/02/12 01:45:53;;;;;;;12.65;6.85;;;7.60;99.90;;;;;;5073495;28;20020;-69
2024/02/12 01:48:19;;;;;;;11.77;7.30;;;7.60;99.90;;;;;;5072846;28;20103;-68
2024/02/12 01:50:45;;;;;;;10.98;6.70;;;7.60;99.90;;;;;;5073643;28;20024;-69
2024/02/12 01:53:11;;;;;;;11.40;7.35;;;7.60;99.90;;;;;;5073646;28;20025;-69
2024/02/12 01:55:36;;;;;;;11.60;7.43;;;7.60;99.90;;;;;;5073459;28;20029;-69
2024/02/12 01:58:04;;;;;;;14.50;7.47;;;7.60;99.90;;;;;;5073326;28;20032;-69
2024/02/12 02:00:29;;;;;;;13.77;7.90;;;7.70;99.90;;;;;;5073248;28;20036;-68
2024/02/12 02:02:56;;;;;;;14.35;7.65;;;7.70;99.90;;;;;;5073215;28;20036;-69
2024/02/12 02:05:21;;;;;;;15.77;8.90;;;7.70;99.90;;;;;;5073696;28;20038;-68
2024/02/12 02:07:52;;;;;;;17.27;9.45;;;7.70;99.90;;;;;;5073241;28;20047;-69
2024/02/12 02:10:19;;;;;;;19.10;9.70;;;7.80;99.90;;;;;;5073461;28;20024;-68
2024/02/12 02:12:46;;;;;;;17.60;9.43;;;7.80;99.90;;;;;;5073364;28;20112;-68
2024/02/12 02:15:12;;;;;;;20.83;9.93;;;7.80;99.90;;;;;;5073287;28;20035;-69
2024/02/12 02:17:39;;;;;;;17.55;9.98;;;7.80;99.90;;;;;;5073310;28;20493;-69
2024/02/12 02:20:08;;;;;;;18.13;10.73;;;7.80;99.90;;;;;;5073084;28;20398;-68
2024/02/12 02:22:34;;;;;;;22.42;11.55;;;7.80;99.90;;;;;;5071790;28;20094;-69
2024/02/12 02:25:00;;;;;;;25.95;12.70;;;7.80;99.90;;;;;;5073310;28;20467;-69
2024/02/12 02:27:25;;;;;;;25.05;13.13;;;7.80;99.90;;;;;;5073211;28;20020;-68
2024/02/12 02:29:51;;;;;;;26.65;14.40;;;7.80;99.90;;;;;;5073189;28;20059;-69
2024/02/12 02:32:17;;;;;;;27.20;14.32;;;7.80;99.90;;;;;;5072949;28;20029;-68
2024/02/12 02:34:43;;;;;;;27.90;14.77;;;7.80;99.90;;;;;;5073042;28;20037;-69
2024/02/12 02:37:10;;;;;;;32.38;15.90;;;7.80;99.90;;;;;;5073165;28;20032;-69
2024/02/12 02:39:36;;;;;;;33.45;18.08;;;7.80;99.90;;;;;;5072848;28;20475;-69
2024/02/12 02:42:03;;;;;;;31.38;16.50;;;7.80;99.90;;;;;;5072882;28;20028;-69
2024/02/12 02:44:29;;;;;;;32.03;17.33;;;7.80;99.90;;;;;;5072825;28;20020;-69
2024/02/12 02:46:55;;;;;;;35.38;18.20;;;7.80;99.90;;;;;;5073074;28;20024;-69
2024/02/12 02:49:21;;;;;;;32.03;17.10;;;7.80;99.90;;;;;;5072862;28;20471;-69
2024/02/12 02:51:47;;;;;;;34.47;17.92;;;7.70;99.90;;;;;;5072842;28;20086;-68
2024/02/12 02:54:14;;;;;;;35.63;18.42;;;7.70;99.90;;;;;;5073082;28;20032;-69
2024/02/12 02:56:39;;;;;;;33.28;18.50;;;7.80;99.90;;;;;;5072740;28;20513;-69
2024/02/12 02:59:06;;;;;;;34.45;19.90;;;7.70;99.90;;;;;;5072703;28;20033;-68
2024/02/12 03:01:32;;;;;;;40.13;19.58;;;7.70;99.90;;;;;;5076237;28;20044;-69
2024/02/12 03:03:58;;;;;;;40.13;21.15;;;7.70;99.90;;;;;;5076513;28;20497;-68
2024/02/12 03:06:24;;;;;;;44.67;21.90;;;7.70;99.90;;;;;;5076478;28;20535;-69
2024/02/12 03:08:50;;;;;;;37.70;20.98;;;7.70;99.90;;;;;;5076708;28;20104;-68
2024/02/12 03:11:18;;;;;;;46.08;23.50;;;7.70;99.90;;;;;;5076378;28;20375;-68
2024/02/12 03:13:44;;;;;;;40.13;22.38;;;7.70;99.90;;;;;;5076545;28;20390;-69
2024/02/12 03:16:17;;;;;;;46.85;23.13;;;7.70;99.90;;;;;;5076304;28;20039;-69
2024/02/12 03:18:46;;;;;;;49.05;26.02;;;7.70;99.90;;;;;;5076311;28;20473;-69
2024/02/12 03:21:18;;;;;;;54.67;26.52;;;7.80;99.90;;;;;;5076358;28;20116;-68
2024/02/12 03:23:44;;;;;;;47.35;24.88;;;7.80;99.90;;;;;;5076298;28;20478;-69
2024/02/12 03:26:09;;;;;;;48.30;24.52;;;7.80;99.90;;;;;;5076060;28;20030;-69
2024/02/12 03:28:37;;;;;;;45.72;25.65;;;7.80;99.90;;;;;;5076008;28;20025;-69
2024/02/12 03:31:04;;;;;;;50.30;26.23;;;7.70;99.90;;;;;;5076046;28;20051;-69
2024/02/12 03:33:30;;;;;;;53.40;26.52;;;7.80;99.90;;;;;;5075905;28;20537;-69
2024/02/12 03:35:56;;;;;;;58.15;26.50;;;7.80;99.90;;;;;;5075964;28;20031;-69
2024/02/12 03:38:24;;;;;;;54.47;29.05;;;7.80;99.90;;;;;;5075995;28;20119;-68
2024/02/12 03:40:50;;;;;;;64.57;29.50;;;7.80;99.90;;;;;;5075871;28;20024;-67
2024/02/12 03:43:17;;;;;;;64.50;30.33;;;7.80;99.90;;;;;;5075640;28;20016;-68
2024/02/12 03:45:45;;;;;;;65.90;29.48;;;7.80;99.90;;;;;;5075573;28;20024;-68
2024/02/12 04:01:59;;;;;;;72.95;30.70;;;7.80;99.90;;;;;;5075144;28;20040;-68
2024/02/12 04:04:25;;;;;;;68.65;31.30;;;7.80;99.90;;;;;;5075301;28;20029;-69
2024/02/12 04:06:51;;;;;;;72.65;30.75;;;7.80;99.90;;;;;;5075374;28;20113;-69
2024/02/12 04:09:17;;;;;;;67.25;32.08;;;7.90;99.90;;;;;;5075424;28;20036;-68
2024/02/12 04:11:43;;;;;;;73.57;32.60;;;7.90;99.90;;;;;;5073801;28;20032;-68
2024/02/12 04:14:09;;;;;;;76.03;31.98;;;7.90;99.90;;;;;;5075370;28;20505;-69
2024/02/12 04:16:36;;;;;;;73.95;31.42;;;7.90;99.90;;;;;;5075307;28;20037;-69
2024/02/12 04:19:03;;;;;;;67.35;30.30;;;7.90;99.90;;;;;;5075213;28;20119;-69
2024/02/12 04:21:32;;;;;;;71.90;32.72;;;7.80;99.90;;;;;;5074952;28;20108;-69
2024/02/12 04:24:00;;;;;;;73.70;32.05;;;7.80;99.90;;;;;;5075157;28;20383;-69
2024/02/12 04:26:26;;;;;;;69.90;32.70;;;7.80;99.90;;;;;;5074929;28;20078;-68
2024/02/12 04:28:53;;;;;;;74.22;32.00;;;7.80;99.90;;;;;;5075064;28;20020;-69
2024/02/12 04:31:20;;;;;;;67.78;31.77;;;7.80;99.90;;;;;;5075098;28;20496;-69
2024/02/12 04:33:46;;;;;;;73.95;31.73;;;7.80;99.90;;;;;;5074914;28;20025;-68
2024/02/12 04:36:15;;;;;;;71.85;32.45;;;7.80;99.90;;;;;;5074847;28;20025;-69
2024/02/12 04:38:41;;;;;;;73.07;33.47;;;7.80;99.90;;;;;;5074766;28;20436;-69
2024/02/12 04:41:06;;;;;;;72.30;32.30;;;7.80;99.90;;;;;;5074288;28;20478;-69
2024/02/12 04:43:35;;;;;;;76.80;33.30;;;7.70;99.90;;;;;;5074576;28;20028;-69
2024/02/12 04:46:01;;;;;;;84.15;33.42;;;7.80;99.90;;;;;;5074531;28;20027;-68
2024/02/12 04:48:27;;;;;;;75.13;33.88;;;7.70;99.90;;;;;;5074459;28;20024;-68
2024/02/12 04:50:53;;;;;;;74.13;31.90;;;7.70;99.90;;;;;;5074632;28;20115;-69
2024/02/12 04:53:18;;;;;;;73.05;33.63;;;7.70;99.90;;;;;;5074404;28;20035;-69
2024/02/12 04:55:45;;;;;;;83.50;35.55;;;7.70;99.90;;;;;;5074075;28;20111;-69
2024/02/12 04:58:11;;;;;;;72.45;32.63;;;7.60;99.90;;;;;;5073964;28;20032;-69
2024/02/12 05:00:37;;;;;;;86.32;32.92;;;7.70;99.90;;;;;;5073974;28;20119;-69
2024/02/12 05:03:03;;;;;;;73.97;32.40;;;7.60;99.90;;;;;;5074075;28;20671;-69
2024/02/12 05:05:29;;;;;;;83.68;33.40;;;7.70;99.90;;;;;;5074108;28;20025;-69
2024/02/12 05:07:55;;;;;;;72.15;33.03;;;7.70;99.90;;;;;;5074267;28;20024;-68
2024/02/12 05:10:21;;;;;;;80.85;33.65;;;7.60;99.90;;;;;;5074278;28;20367;-68
2024/02/12 05:12:47;;;;;;;77.13;34.75;;;7.60;99.90;;;;;;5074195;28;20504;-68
2024/02/12 05:15:13;;;;;;;77.07;32.85;;;7.60;99.90;;;;;;5074111;28;20229;-69
2024/02/12 05:22:32;;;;;;;81.35;34.45;;;7.60;99.90;;;;;;5073853;28;20032;-69
2024/02/12 05:23:10;;;;;;;90.97;36.05;;;7.60;99.90;;;;;;5072862;28;20055;-69
2024/02/12 05:25:36;;;;;;;85.43;36.92;;;7.60;99.90;;;;;;5073703;28;20033;-69
2024/02/12 05:28:03;;;;;;;81.95;35.55;;;7.60;99.90;;;;;;5073920;28;20021;-68
2024/02/12 05:30:31;;;;;;;80.72;34.13;;;7.60;99.90;;;;;;5073912;28;20036;-69
2024/02/12 05:32:58;;;;;;;83.82;36.08;;;7.50;99.90;;;;;;5073789;28;20025;-69
2024/02/12 05:35:24;;;;;;;85.07;36.08;;;7.50;99.90;;;;;;5073569;28;20029;-69
2024/02/12 05:37:49;;;;;;;84.28;36.38;;;7.50;99.90;;;;;;5073781;28;20020;-69
2024/02/12 05:40:15;;;;;;;88.90;36.53;;;7.50;99.90;;;;;;5073668;28;20024;-69
2024/02/12 05:42:41;;;;;;;89.60;37.15;;;7.50;99.90;;;;;;5073390;28;20025;-69
2024/02/12 05:45:08;;;;;;;87.43;37.92;;;7.50;99.90;;;;;;5073647;28;20074;-69
2024/02/12 05:47:34;;;;;;;92.30;37.85;;;7.50;99.90;;;;;;5073425;28;20376;-68
2024/02/12 05:50:00;;;;;;;93.30;36.03;;;7.50;99.90;;;;;;5073397;28;20046;-69
2024/02/12 05:52:25;;;;;;;89.78;38.78;;;7.50;99.90;;;;;;5073414;28;20506;-69
2024/02/12 05:54:51;;;;;;;91.05;39.20;;;7.50;99.90;;;;;;5073395;28;20025;-69
2024/02/12 05:57:17;;;;;;;93.70;39.83;;;7.50;99.90;;;;;;5073342;28;20082;-69
2024/02/12 05:59:42;;;;;;;93.75;40.65;;;7.50;99.90;;;;;;5073312;28;20127;-69
2024/02/12 06:02:08;;;;;;;95.75;37.72;;;7.60;99.90;;;;;;5073153;28;20043;-69
2024/02/12 06:04:34;;;;;;;90.75;38.20;;;7.60;99.90;;;;;;5072273;28;20024;-69
2024/02/12 06:07:00;;;;;;;92.60;38.35;;;7.60;99.90;;;;;;5071947;28;20024;-69
2024/02/12 06:09:27;;;;;;;89.43;36.55;;;7.60;99.90;;;;;;5073083;28;20025;-69
2024/02/12 06:11:53;;;;;;;92.97;37.35;;;7.60;99.90;;;;;;5072643;28;20032;-69
2024/02/12 06:14:19;;;;;;;92.57;38.30;;;7.50;99.90;;;;;;5069770;28;20036;-67
2024/02/12 06:16:45;;;;;;;88.90;36.55;;;7.50;99.90;;;;;;5067014;28;20025;-69
2024/02/12 06:19:11;;;;;;;85.65;37.10;;;7.60;99.90;;;;;;5072188;28;20478;-69
2024/02/12 06:21:37;;;;;;;84.97;35.15;;;7.50;99.90;;;;;;5071293;28;20418;-68
2024/02/12 06:24:04;;;;;;;77.55;36.25;;;7.50;99.90;;;;;;5072057;28;20032;-69
2024/02/12 06:26:33;;;;;;;79.00;36.53;;;7.50;99.90;;;;;;5072734;28;20029;-69
2024/02/12 06:28:59;;;;;;;82.63;35.70;;;7.50;99.90;;;;;;5071771;28;20029;-69
2024/02/12 06:31:25;;;;;;;84.28;36.47;;;7.50;99.90;;;;;;5070906;28;20376;-69
2024/02/12 06:33:51;;;;;;;78.47;36.50;;;7.50;99.90;;;;;;5074568;28;20401;-69
2024/02/12 06:36:17;;;;;;;78.75;36.53;;;7.40;99.90;;;;;;5085764;28;20024;-69
2024/02/12 06:38:42;;;;;;;75.70;35.17;;;7.40;99.90;;;;;;5089575;28;20473;-69
2024/02/12 06:41:09;;;;;;;76.57;34.72;;;7.40;99.90;;;;;;5076519;28;20074;-69
2024/02/12 06:43:34;;;;;;;70.32;33.22;;;7.40;99.90;;;;;;5078721;28;20025;-69
2024/02/12 06:46:00;;;;;;;69.13;33.65;;;7.30;99.90;;;;;;5076213;28;20102;-67
2024/02/12 06:48:26;;;;;;;68.50;33.75;;;7.20;99.90;;;;;;5076386;28;20105;-69
2024/02/12 06:50:52;;;;;;;76.63;36.25;;;7.20;99.90;;;;;;5070574;28;20117;-67
2024/02/12 06:53:19;;;;;;;71.00;34.45;;;7.20;99.90;;;;;;5071293;28;20032;-69
2024/02/12 06:55:46;;;;;;;72.53;34.80;;;7.10;99.90;;;;;;5072066;28;20020;-69
2024/02/12 06:58:12;;;;;;;77.68;35.10;;;7.20;99.90;;;;;;5069727;28;20024;-69
2024/02/12 07:00:37;;;;;;;79.15;35.67;;;7.20;99.90;;;;;;5076579;28;20040;-70
2024/02/12 07:03:04;;;;;;;75.50;35.08;;;7.10;99.90;;;;;;5071551;28;20088;-69
2024/02/12 07:05:30;;;;;;;83.68;38.95;;;7.10;99.90;;;;;;5086396;28;20553;-68
2024/02/12 07:07:56;;;;;;;87.40;38.53;;;7.00;99.90;;;;;;5076188;28;20114;-68
2024/02/12 07:10:23;;;;;;;81.60;37.72;;;7.00;99.90;;;;;;5078747;28;20086;-69
2024/02/12 07:12:50;;;;;;;104.45;52.45;;;6.90;99.90;;;;;;5074506;28;20025;-69
2024/02/12 07:15:16;;;;;;;133.18;65.78;;;6.90;99.90;;;;;;5072444;28;20036;-69
2024/02/12 07:17:42;;;;;;;124.05;59.83;;;6.90;99.90;;;;;;5074631;28;20082;-67
2024/02/12 07:20:09;;;;;;;109.03;52.83;;;6.90;99.90;;;;;;5082366;28;20485;-69
2024/02/12 07:22:35;;;;;;;96.10;40.60;;;7.00;99.90;;;;;;5095633;28;20027;-69
2024/02/12 07:25:01;;;;;;;82.95;38.78;;;7.00;99.90;;;;;;5072975;28;20055;-69
2024/02/12 07:27:27;;;;;;;80.30;38.17;;;7.20;99.90;;;;;;5074675;28;20028;-69
2024/02/12 07:29:53;;;;;;;78.68;37.30;;;7.50;99.90;;;;;;5073483;28;20028;-69
2024/02/12 07:32:19;;;;;;;71.70;33.63;;;7.50;99.90;;;;;;5074356;28;20040;-69
2024/02/12 07:34:45;;;;;;;69.50;35.83;;;7.40;99.90;;;;;;5081702;28;20390;-69
2024/02/12 07:37:11;;;;;;;72.18;36.72;;;7.40;99.90;;;;;;5084963;28;20024;-69
2024/02/12 07:39:39;;;;;;;66.80;31.33;;;7.20;99.90;;;;;;5080369;28;20036;-69
2024/02/12 07:42:12;;;;;;;68.30;32.63;;;7.20;99.90;;;;;;5072568;28;20036;-69
2024/02/12 07:44:38;;;;;;;70.40;32.83;;;7.10;99.90;;;;;;5074845;28;20060;-69
2024/02/12 07:47:05;;;;;;;74.90;35.40;;;7.10;99.90;;;;;;5069122;28;20149;-69
2024/02/12 07:49:34;;;;;;;71.70;32.50;;;7.10;99.90;;;;;;5063739;28;20047;-69
2024/02/12 07:52:00;;;;;;;70.45;31.58;;;7.10;99.90;;;;;;5071699;28;20032;-72
2024/02/12 07:54:28;;;;;;;68.63;31.58;;;7.10;99.90;;;;;;5065588;28;20486;-69
2024/02/12 07:56:54;;;;;;;69.55;31.50;;;7.20;99.90;;;;;;5073630;28;20166;-70
2024/02/12 07:59:20;;;;;;;73.00;31.92;;;7.20;99.90;;;;;;5073905;28;20501;-70
2024/02/12 08:01:46;;;;;;;68.97;33.17;;;7.20;99.90;;;;;;5073164;28;20048;-71
2024/02/12 08:04:12;;;;;;;76.43;33.58;;;7.30;99.90;;;;;;5074399;28;20046;-70
2024/02/12 08:06:38;;;;;;;75.75;33.65;;;7.30;99.90;;;;;;5073415;28;20107;-70
2024/02/12 08:09:04;;;;;;;76.60;33.42;;;7.30;99.90;;;;;;5071764;28;20483;-71
2024/02/12 08:11:30;;;;;;;74.20;32.67;;;7.30;99.90;;;;;;5073144;28;20113;-71
2024/02/12 08:13:56;;;;;;;75.45;35.08;;;7.40;99.90;;;;;;5070792;28;20063;-71
2024/02/12 08:16:22;;;;;;;78.55;34.13;;;7.40;99.90;;;;;;5074153;28;20056;-71
2024/02/12 08:18:48;;;;;;;82.38;34.95;;;7.40;99.90;;;;;;5074873;28;20028;-71
2024/02/12 08:21:14;;;;;;;74.80;35.88;;;7.40;99.90;;;;;;5073176;28;20434;-71
2024/02/12 08:23:39;;;;;;;76.68;34.33;;;7.50;99.90;;;;;;5074824;28;20431;-71
2024/02/12 08:26:05;;;;;;;84.10;35.78;;;7.50;99.90;;;;;;5074844;28;20462;-70
2024/02/12 08:28:31;;;;;;;79.78;34.95;;;7.60;99.90;;;;;;5070104;28;20032;-71
2024/02/12 08:30:57;;;;;;;84.30;36.47;;;7.70;99.90;;;;;;5073688;28;20032;-72
2024/02/12 08:33:26;;;;;;;83.30;36.25;;;7.80;99.90;;;;;;5073737;28;20071;-72
2024/02/12 08:35:53;;;;;;;77.05;34.45;;;7.80;99.90;;;;;;5076028;28;20128;-72
2024/02/12 08:38:18;;;;;;;86.20;36.33;;;7.80;99.90;;;;;;5072769;28;20034;-70
2024/02/12 08:40:44;;;;;;;73.80;34.42;;;7.90;99.90;;;;;;5079097;28;20103;-73
2024/02/12 08:43:10;;;;;;;84.55;36.40;;;7.80;99.90;;;;;;5062326;28;20039;-72
2024/02/12 08:45:35;;;;;;;78.30;36.80;;;7.80;99.90;;;;;;5071786;28;20036;-73
2024/02/12 08:48:01;;;;;;;76.32;34.88;;;7.90;99.90;;;;;;5071350;28;20033;-73
2024/02/12 08:50:27;;;;;;;73.95;33.85;;;7.90;99.90;;;;;;5066161;28;20039;-72
2024/02/12 08:52:54;;;;;;;77.43;35.65;;;7.90;99.90;;;;;;5068162;28;20335;-70
2024/02/12 08:55:19;;;;;;;70.55;33.83;;;7.90;99.90;;;;;;5065298;28;20028;-70
2024/02/12 08:57:45;;;;;;;87.32;36.65;;;7.90;99.90;;;;;;5069889;28;20047;-71
2024/02/12 09:00:13;;;;;;;75.35;34.80;;;8.00;99.90;;;;;;5066119;28;20044;-71
2024/02/12 09:02:40;;;;;;;79.53;35.25;;;8.20;99.90;;;;;;5070675;28;20421;-69
2024/02/12 09:05:10;;;;;;;78.85;34.95;;;8.30;99.90;;;;;;5068569;28;20044;-72
2024/02/12 09:07:38;;;;;;;70.60;33.80;;;8.40;99.90;;;;;;5070791;28;20033;-69
2024/02/12 09:10:06;;;;;;;72.07;33.63;;;8.50;99.90;;;;;;5070723;28;20030;-72
2024/02/12 09:12:37;;;;;;;76.10;34.70;;;8.80;99.90;;;;;;5072534;28;20033;-71
2024/02/12 09:15:05;;;;;;;71.03;33.20;;;8.80;99.90;;;;;;5071848;28;20036;-71
2024/02/12 09:17:31;;;;;;;67.75;32.88;;;8.70;99.90;;;;;;5071695;28;20024;-71
2024/02/12 09:19:56;;;;;;;69.80;34.75;;;8.80;99.90;;;;;;5071477;28;20040;-70
2024/02/12 09:22:22;;;;;;;72.93;35.10;;;8.60;99.90;;;;;;5070058;28;20071;-69
2024/02/12 09:24:48;;;;;;;71.22;34.20;;;8.70;99.90;;;;;;5071262;28;20390;-74
2024/02/12 09:27:13;;;;;;;77.85;34.20;;;8.60;99.90;;;;;;5072475;28;20039;-68
2024/02/12 09:29:39;;;;;;;74.85;34.63;;;8.70;99.90;;;;;;5072858;28;20035;-69
2024/02/12 09:32:05;;;;;;;77.35;34.97;;;8.70;99.90;;;;;;5072223;28;20478;-70
2024/02/12 09:34:34;;;;;;;68.13;33.22;;;8.80;99.90;;;;;;5070075;28;20044;-71
2024/02/12 09:36:59;;;;;;;72.40;35.97;;;8.80;99.90;;;;;;5071523;28;20035;-71
2024/02/12 09:39:25;;;;;;;74.97;35.33;;;8.80;99.90;;;;;;5072582;28;20461;-71
2024/02/12 09:41:51;;;;;;;72.45;34.58;;;8.70;99.90;;;;;;5070645;28;20028;-71
2024/02/12 09:44:23;;;;;;;73.18;35.65;;;8.70;99.90;;;;;;5071945;28;20429;-71
2024/02/12 09:46:54;;;;;;;77.93;34.25;;;8.80;99.90;;;;;;5071565;28;20115;-71
2024/02/12 09:49:20;;;;;;;88.50;37.42;;;8.70;99.90;;;;;;5071080;28;20413;-71
2024/02/12 09:51:47;;;;;;;76.68;36.17;;;8.70;99.90;;;;;;5070524;28;20036;-71
2024/02/12 09:54:14;;;;;;;76.93;36.45;;;8.50;99.90;;;;;;5068079;28;20081;-70
2024/02/12 09:56:42;;;;;;;73.30;34.72;;;8.60;99.90;;;;;;5069356;28;20036;-71
2024/02/12 09:59:08;;;;;;;80.45;36.25;;;8.50;99.90;;;;;;5069986;28;20059;-70
2024/02/12 10:01:35;;;;;;;73.80;36.90;;;8.50;99.90;;;;;;5069953;28;20040;-71
2024/02/12 10:04:02;;;;;;;78.35;36.17;;;8.50;99.90;;;;;;5069269;28;20108;-71
2024/02/12 10:06:28;;;;;;;80.78;37.15;;;8.60;99.90;;;;;;5069242;28;20532;-71
2024/02/12 10:09:06;;;;;;;83.03;36.38;;;8.60;99.90;;;;;;5070773;28;20028;-71
2024/02/12 10:11:31;;;;;;;82.95;36.28;;;8.60;99.90;;;;;;5071157;28;20033;-71
2024/02/12 10:14:00;;;;;;;80.10;35.83;;;8.60;99.90;;;;;;5067511;28;20478;-69
2024/02/12 10:16:26;;;;;;;77.38;35.45;;;8.60;99.90;;;;;;5068775;28;20391;-71
2024/02/12 10:18:56;;;;;;;79.70;37.25;;;8.60;99.90;;;;;;5069655;28;20394;-72
2024/02/12 10:21:23;;;;;;;84.28;38.97;;;8.60;99.90;;;;;;5068974;28;20033;-70
2024/02/12 10:23:49;;;;;;;82.25;38.08;;;8.60;99.90;;;;;;5071076;28;20493;-71
2024/02/12 10:26:22;;;;;;;86.68;40.40;;;8.60;99.90;;;;;;5070535;28;20020;-72
2024/02/12 10:28:57;;;;;;;80.63;37.03;;;8.60;99.90;;;;;;5071683;28;20486;-70
2024/02/12 10:31:23;;;;;;;77.78;36.92;;;8.50;99.90;;;;;;5071615;28;20542;-71
2024/02/12 10:33:51;;;;;;;76.57;35.28;;;8.50;99.90;;;;;;5071901;28;20406;-70
2024/02/12 10:36:19;;;;;;;84.45;37.55;;;8.50;99.90;;;;;;5071995;28;20047;-71
2024/02/12 10:38:48;;;;;;;81.55;37.42;;;8.50;99.90;;;;;;5069397;28;20036;-70
2024/02/12 10:41:31;;;;;;;76.50;36.88;;;8.40;99.90;;;;;;5070276;28;20036;-72
2024/02/12 10:43:58;;;;;;;82.45;39.10;;;8.40;99.90;;;;;;5071832;28;20029;-69
2024/02/12 10:46:25;;;;;;;85.50;37.78;;;8.30;99.90;;;;;;5071088;28;20044;-70
2024/02/12 10:48:52;;;;;;;90.03;39.85;;;8.30;99.90;;;;;;5071331;28;20482;-71
2024/02/12 10:51:23;;;;;;;90.65;39.08;;;8.30;99.90;;;;;;5071308;28;20029;-71
2024/02/12 10:53:50;;;;;;;82.38;37.85;;;8.30;99.90;;;;;;5070568;28;20123;-71
2024/02/12 10:56:16;;;;;;;77.93;34.33;;;8.20;99.90;;;;;;5070090;28;20028;-72
2024/02/12 10:58:43;;;;;;;39.45;19.27;;;8.20;99.90;;;;;;5069896;28;20028;-70
2024/02/12 11:01:13;;;;;;;22.60;11.43;;;8.00;99.90;;;;;;5068803;28;20448;-71
2024/02/12 11:03:41;;;;;;;19.23;10.95;;;7.90;99.90;;;;;;5069191;28;20039;-73
2024/02/12 11:06:10;;;;;;;24.23;11.63;;;7.90;99.90;;;;;;5070545;28;20398;-70
2024/02/12 11:08:41;;;;;;;21.50;10.93;;;8.00;99.90;;;;;;5071067;28;20061;-70
2024/02/12 11:11:28;;;;;;;21.17;11.77;;;8.00;99.90;;;;;;5071471;28;20048;-72
2024/02/12 11:14:02;;;;;;;25.60;12.13;;;7.90;99.90;;;;;;5070836;28;20073;-71
2024/02/12 11:16:30;;;;;;;26.50;13.93;;;7.80;99.90;;;;;;5068272;28;20390;-72
2024/02/12 11:18:58;;;;;;;32.35;15.63;;;7.70;99.90;;;;;;5068504;28;20105;-71
2024/02/12 11:21:30;;;;;;;31.92;15.35;;;7.70;99.90;;;;;;5073286;28;20520;-70
2024/02/12 11:24:12;;;;;;;36.38;16.67;;;7.60;99.90;;;;;;5073419;28;20021;-71
2024/02/12 11:26:43;;;;;;;38.38;17.98;;;7.60;99.90;;;;;;5074108;28;20115;-72
2024/02/12 11:29:11;;;;;;;39.63;20.45;;;7.50;99.90;;;;;;5073523;28;20028;-70
2024/02/12 11:31:38;;;;;;;42.20;21.17;;;7.50;99.90;;;;;;5075546;28;20494;-71
2024/02/12 11:34:20;;;;;;;43.25;21.00;;;7.50;99.90;;;;;;5075208;28;20114;-70
2024/02/12 11:37:03;;;;;;;39.58;20.67;;;7.60;99.90;;;;;;5074092;28;20390;-71
2024/02/12 11:39:30;;;;;;;42.42;20.55;;;7.50;99.90;;;;;;5075124;28;20162;-70
2024/02/12 11:41:57;;;;;;;46.05;21.55;;;7.60;99.90;;;;;;5074043;28;20024;-70
2024/02/12 11:44:24;;;;;;;44.40;20.92;;;7.60;99.90;;;;;;5075192;28;20031;-71
2024/02/12 11:46:59;;;;;;;42.00;21.15;;;7.60;99.90;;;;;;5074419;28;20021;-72
2024/02/12 11:49:25;;;;;;;47.25;22.35;;;7.70;99.90;;;;;;5075782;28;20364;-71
2024/02/12 11:51:51;;;;;;;44.50;21.92;;;8.00;99.90;;;;;;5075084;28;20086;-72
2024/02/12 11:54:17;;;;;;;46.97;23.10;;;8.20;99.90;;;;;;5074889;28;20028;-72
2024/02/12 11:56:44;;;;;;;46.67;24.15;;;8.10;99.90;;;;;;5074475;28;20077;-72
2024/02/12 11:59:10;;;;;;;51.90;26.40;;;8.20;99.90;;;;;;5072999;28;20482;-72
2024/02/12 12:01:37;;;;;;;50.13;26.35;;;8.20;99.90;;;;;;5074057;28;20169;-72
2024/02/12 12:04:03;;;;;;;49.88;25.63;;;8.30;99.90;;;;;;5072344;28;20036;-73
2024/02/12 12:06:31;;;;;;;50.53;25.40;;;8.20;99.90;;;;;;5073388;28;20020;-72
2024/02/12 12:08:58;;;;;;;55.47;25.90;;;8.30;99.90;;;;;;5071661;28;20028;-71
2024/02/12 12:11:24;;;;;;;56.30;27.05;;;8.40;99.90;;;;;;5070962;28;20394;-70
2024/02/12 12:13:59;;;;;;;54.58;26.33;;;8.50;99.90;;;;;;5071080;28;20025;-70
2024/02/12 12:16:27;;;;;;;56.22;27.05;;;8.50;99.90;;;;;;5075253;28;20130;-70
2024/02/12 12:18:53;;;;;;;58.33;26.38;;;8.50;99.90;;;;;;5073179;28;20159;-71
2024/02/12 12:21:19;;;;;;;62.20;28.77;;;8.60;99.90;;;;;;5074358;28;20032;-71
2024/02/12 12:23:46;;;;;;;59.38;26.88;;;8.60;99.90;;;;;;5074475;28;20029;-72
2024/02/12 12:26:12;;;;;;;61.85;28.58;;;8.80;99.90;;;;;;5073712;28;20634;-72
2024/02/12 12:28:38;;;;;;;56.58;27.38;;;8.90;99.90;;;;;;5073471;28;20028;-72
2024/02/12 12:31:07;;;;;;;55.92;27.05;;;8.90;99.90;;;;;;5073813;28;20119;-71
2024/02/12 12:33:32;;;;;;;62.65;30.80;;;8.80;99.90;;;;;;5075089;28;20059;-71
2024/02/12 12:35:58;;;;;;;59.38;29.35;;;8.90;99.90;;;;;;5072151;28;20059;-70
2024/02/12 12:38:24;;;;;;;57.90;28.60;;;8.90;99.90;;;;;;5074066;28;20040;-71
2024/02/12 12:40:49;;;;;;;55.33;28.77;;;8.90;99.90;;;;;;5072929;28;20210;-71
2024/02/12 12:43:16;;;;;;;57.20;29.30;;;8.90;99.90;;;;;;5076709;28;20094;-72
2024/02/12 12:45:42;;;;;;;59.50;30.38;;;9.00;99.90;;;;;;5072327;28;20025;-72
2024/02/12 12:48:12;;;;;;;61.10;29.90;;;8.70;99.90;;;;;;5067619;28;20502;-71
2024/02/12 12:50:38;;;;;;;59.38;29.38;;;8.60;99.90;;;;;;5064041;28;20063;-71
2024/02/12 12:53:06;;;;;;;64.53;30.13;;;8.60;99.90;;;;;;5073464;28;20494;-73